X  Fechar Dados meteorológicos de METAR da aviação        LGTS Thessaloniki Macedonia International
Temperatura
16°C Temperatura
8°C Ponto de orvalho
59% Umidade



Vento
7 KM/H
5 MPH
2 M/S
4 NÓS



130°
SL
Condições atuais

Partly Cloudy with Light Rain Parcialmente nublado , leve Chuva
Pressão 1014 (hPa) - 29.94 (inHg)
Visibilidade 6 (milha) - 10 (km)
Aeroporto
Código do aeroporto LGTS

Localização: Thessaloniki Macedonia International
Distância: 85 (km)

Metar:
METAR LGTS 010050Z 13004KT 9999 -RA SCT020 16/08 Q1014 NOSIG

Hora: 01-03-2024 02:50 EET